createdAt,value
2019-02-20T00:01:24.520Z,6.40
2019-02-20T00:03:55.100Z,6.30
2019-02-20T00:06:25.640Z,6.30
2019-02-20T00:08:56.039Z,6.30
2019-02-20T00:11:28.023Z,6.30
2019-02-20T00:13:59.561Z,6.30
2019-02-20T00:16:29.922Z,6.20
2019-02-20T00:19:00.170Z,6.30
2019-02-20T00:21:30.403Z,6.30
2019-02-20T00:24:02.183Z,6.20
2019-02-20T00:26:32.822Z,6.30
2019-02-20T00:29:03.204Z,6.30
2019-02-20T00:31:33.950Z,6.30
2019-02-20T00:34:08.298Z,6.30
2019-02-20T00:36:38.883Z,6.30
2019-02-20T00:39:10.555Z,6.40
2019-02-20T00:41:41.030Z,6.30
2019-02-20T00:44:29.639Z,6.40
2019-02-20T00:47:21.809Z,6.30
2019-02-20T00:49:53.022Z,6.20
2019-02-20T00:52:29.845Z,6.20
2019-02-20T00:55:00.801Z,6.20
2019-02-20T00:57:30.899Z,6.20
2019-02-20T01:00:01.458Z,6.10
2019-02-20T01:02:31.890Z,6.10
2019-02-20T01:05:02.409Z,6.10
2019-02-20T01:07:33.340Z,6.10
2019-02-20T01:10:03.839Z,6.10
2019-02-20T01:12:34.289Z,6.10
2019-02-20T01:15:06.312Z,6.10
2019-02-20T01:17:37.236Z,6.00
2019-02-20T01:20:08.262Z,6.00
2019-02-20T01:22:38.594Z,6.00
2019-02-20T01:25:09.882Z,6.00
2019-02-20T01:27:40.100Z,5.90
2019-02-20T01:30:10.763Z,6.00
2019-02-20T01:32:41.707Z,6.00
2019-02-20T01:35:12.601Z,5.90
2019-02-20T01:37:43.075Z,5.90
2019-02-20T01:40:13.442Z,5.80
2019-02-20T01:42:44.233Z,5.80
2019-02-20T01:45:14.580Z,5.80
2019-02-20T01:47:45.011Z,5.80
2019-02-20T01:50:16.148Z,5.80
2019-02-20T01:52:46.568Z,5.70
2019-02-20T01:55:16.886Z,5.80
2019-02-20T01:57:47.542Z,5.70
2019-02-20T02:00:17.843Z,5.70
2019-02-20T02:02:48.454Z,5.80
2019-02-20T02:05:18.998Z,5.70
2019-02-20T02:07:49.538Z,5.70
2019-02-20T02:10:20.000Z,5.80
2019-02-20T02:12:50.693Z,5.80
2019-02-20T02:15:21.031Z,5.70
2019-02-20T02:17:51.909Z,5.70
2019-02-20T02:20:22.412Z,5.70
2019-02-20T02:22:52.561Z,5.80
2019-02-20T02:25:23.661Z,5.70
2019-02-20T02:27:54.010Z,5.70
2019-02-20T02:30:24.393Z,5.70
2019-02-20T02:32:54.945Z,5.70
2019-02-20T02:35:25.247Z,5.70
2019-02-20T02:37:55.704Z,5.70
2019-02-20T02:40:26.625Z,5.70
2019-02-20T02:42:57.551Z,5.70
2019-02-20T02:45:28.106Z,5.70
2019-02-20T02:47:58.933Z,5.70
2019-02-20T02:50:29.309Z,5.70
2019-02-20T02:52:59.665Z,5.70
2019-02-20T02:55:29.945Z,5.70
2019-02-20T02:58:00.313Z,5.70
2019-02-20T03:00:30.602Z,5.70
2019-02-20T03:03:02.498Z,5.70
2019-02-20T03:05:32.774Z,5.70
2019-02-20T03:08:03.053Z,5.70
2019-02-20T03:10:33.546Z,5.80
2019-02-20T03:13:03.891Z,5.80
2019-02-20T03:15:34.618Z,5.70
2019-02-20T03:18:04.937Z,5.60
2019-02-20T03:20:35.317Z,5.70
2019-02-20T03:23:05.584Z,5.60
2019-02-20T03:25:36.221Z,5.60
2019-02-20T03:28:06.294Z,5.60
2019-02-20T03:30:37.030Z,5.50
2019-02-20T03:33:07.609Z,5.50
2019-02-20T03:35:37.851Z,5.50
2019-02-20T03:38:08.229Z,5.50
2019-02-20T03:40:38.587Z,5.40
2019-02-20T03:43:08.617Z,5.40
2019-02-20T03:45:39.228Z,5.50
2019-02-20T03:48:10.100Z,5.50
2019-02-20T03:50:40.265Z,5.50
2019-02-20T03:53:10.351Z,5.50
2019-02-20T03:55:40.695Z,5.40
2019-02-20T03:58:11.402Z,5.40
2019-02-20T04:00:41.925Z,5.40
2019-02-20T04:03:12.290Z,5.50
2019-02-20T04:05:42.386Z,5.50
2019-02-20T04:08:12.490Z,5.50
2019-02-20T04:10:42.771Z,5.50
2019-02-20T04:13:13.069Z,5.50
2019-02-20T04:15:43.983Z,5.40
2019-02-20T04:18:14.419Z,5.40
2019-02-20T04:20:44.777Z,5.40
2019-02-20T04:23:15.186Z,5.40
2019-02-20T04:25:45.671Z,5.40
2019-02-20T04:28:17.724Z,5.40
2019-02-20T04:30:48.084Z,5.40
2019-02-20T04:33:18.752Z,5.50
2019-02-20T04:35:48.954Z,5.40
2019-02-20T04:38:19.218Z,5.40
2019-02-20T04:40:50.113Z,5.50
2019-02-20T04:43:22.129Z,5.40
2019-02-20T04:45:52.362Z,5.50
2019-02-20T04:48:22.662Z,5.50
2019-02-20T04:50:53.266Z,5.50
2019-02-20T04:53:23.365Z,5.50
2019-02-20T04:55:53.878Z,5.40
2019-02-20T04:58:24.462Z,5.40
2019-02-20T05:00:55.275Z,5.40
2019-02-20T05:03:25.626Z,5.40
2019-02-20T05:05:55.902Z,5.40
2019-02-20T05:08:26.185Z,5.40
2019-02-20T05:10:56.470Z,5.40
2019-02-20T05:13:26.647Z,5.50
2019-02-20T05:15:57.466Z,5.50
2019-02-20T05:18:28.147Z,5.50
2019-02-20T05:20:58.667Z,5.50
2019-02-20T05:23:28.917Z,5.50
2019-02-20T05:25:59.713Z,5.40
2019-02-20T05:28:29.837Z,5.40
2019-02-20T05:31:00.522Z,5.40
2019-02-20T05:33:31.321Z,5.40
2019-02-20T05:36:02.167Z,5.40
2019-02-20T05:38:32.436Z,5.50
2019-02-20T05:41:02.759Z,5.60
2019-02-20T05:43:32.958Z,5.50
2019-02-20T05:46:03.177Z,5.50
2019-02-20T05:48:34.862Z,5.40
2019-02-20T05:51:05.141Z,5.40
2019-02-20T05:53:35.454Z,5.30
2019-02-20T05:56:06.089Z,5.30
2019-02-20T05:58:36.393Z,5.30
2019-02-20T06:01:06.728Z,5.20
2019-02-20T06:03:37.199Z,5.20
2019-02-20T06:06:08.850Z,5.10
2019-02-20T06:08:39.257Z,5.20
2019-02-20T06:11:14.929Z,5.20
2019-02-20T06:13:41.353Z,5.20
2019-02-20T06:16:13.592Z,5.20
2019-02-20T06:18:44.372Z,5.20
2019-02-20T06:21:16.338Z,5.20
2019-02-20T06:23:46.625Z,5.20
2019-02-20T06:26:20.155Z,5.20
2019-02-20T06:28:50.585Z,5.20
2019-02-20T06:31:21.370Z,5.20
2019-02-20T06:33:52.053Z,5.20
2019-02-20T06:36:22.547Z,5.20
2019-02-20T06:38:53.958Z,5.20
2019-02-20T06:41:26.530Z,5.30
2019-02-20T06:43:57.261Z,5.30
2019-02-20T06:46:27.885Z,5.20
2019-02-20T06:48:58.057Z,5.20
2019-02-20T06:51:35.210Z,5.20
2019-02-20T06:54:05.516Z,5.30
2019-02-20T06:56:35.932Z,5.30
2019-02-20T06:59:09.137Z,5.30
2019-02-20T07:01:39.244Z,5.30
2019-02-20T07:04:10.763Z,5.30
2019-02-20T07:07:05.246Z,5.30
2019-02-20T07:10:27.298Z,5.30
2019-02-20T07:13:49.975Z,5.30
2019-02-20T07:17:13.251Z,5.30
2019-02-20T07:19:57.365Z,5.40
2019-02-20T07:22:42.917Z,5.40
2019-02-20T07:25:46.284Z,5.40
2019-02-20T07:28:59.593Z,5.40
2019-02-20T07:31:30.935Z,5.50
2019-02-20T07:34:05.520Z,5.50
2019-02-20T07:36:35.805Z,5.50
2019-02-20T07:39:10.666Z,5.50
2019-02-20T07:41:41.385Z,5.50
2019-02-20T07:44:11.434Z,5.50
2019-02-20T07:46:41.767Z,5.60
2019-02-20T07:49:12.594Z,5.60
2019-02-20T07:51:44.738Z,5.70
2019-02-20T07:54:15.063Z,5.70
2019-02-20T07:56:45.404Z,5.70
2019-02-20T07:59:19.926Z,5.70
2019-02-20T08:01:52.014Z,5.80
2019-02-20T08:04:22.706Z,5.80
2019-02-20T08:06:53.100Z,5.90
2019-02-20T08:09:26.373Z,5.90
2019-02-20T08:11:56.732Z,6.00
2019-02-20T08:14:27.057Z,6.00
2019-02-20T08:16:58.377Z,6.00
2019-02-20T08:19:40.797Z,6.10
2019-02-20T08:22:14.355Z,6.10
2019-02-20T08:24:45.817Z,6.20
2019-02-20T08:27:18.332Z,6.30
2019-02-20T08:29:52.542Z,6.30
2019-02-20T08:32:22.554Z,6.30
2019-02-20T08:34:53.009Z,6.20
2019-02-20T08:37:23.405Z,6.30
2019-02-20T08:39:53.656Z,6.40
2019-02-20T08:42:23.763Z,6.30
2019-02-20T08:44:54.068Z,6.40
2019-02-20T08:47:24.214Z,6.50
2019-02-20T08:49:54.773Z,6.50
2019-02-20T08:52:25.096Z,6.60
2019-02-20T08:54:55.364Z,6.60
2019-02-20T08:57:25.874Z,6.60
2019-02-20T09:00:00.487Z,6.60
2019-02-20T09:02:30.579Z,6.70
2019-02-20T09:05:03.102Z,6.80
2019-02-20T09:07:33.521Z,6.80
2019-02-20T09:10:03.905Z,6.90
2019-02-20T09:12:34.126Z,6.80
2019-02-20T09:15:06.304Z,6.70
2019-02-20T09:17:36.202Z,6.70
2019-02-20T09:20:07.043Z,6.80
2019-02-20T09:22:40.993Z,6.80
2019-02-20T09:25:19.432Z,6.90
2019-02-20T09:27:47.837Z,7.00
2019-02-20T09:30:15.736Z,7.00
2019-02-20T09:32:45.928Z,7.10
2019-02-20T09:35:18.145Z,7.20
2019-02-20T09:37:50.180Z,7.10
2019-02-20T09:40:23.551Z,7.20
2019-02-20T09:42:55.518Z,7.30
2019-02-20T09:45:26.111Z,7.30
2019-02-20T09:47:56.188Z,7.30
2019-02-20T09:50:26.701Z,7.30
2019-02-20T09:52:56.853Z,7.50
2019-02-20T09:55:27.133Z,7.70
2019-02-20T09:57:59.729Z,7.60
2019-02-20T10:00:29.904Z,7.80
2019-02-20T10:03:00.185Z,7.80
2019-02-20T10:05:33.760Z,7.90
2019-02-20T10:08:06.849Z,7.90
2019-02-20T10:10:37.143Z,8.00
2019-02-20T10:13:11.549Z,8.00
2019-02-20T10:15:41.728Z,8.00
2019-02-20T10:18:12.317Z,8.00
2019-02-20T10:20:42.974Z,8.10
2019-02-20T10:23:15.878Z,8.10
2019-02-20T10:25:46.124Z,8.20
2019-02-20T10:28:16.513Z,8.20
2019-02-20T10:30:46.813Z,8.20
2019-02-20T10:33:17.131Z,8.40
2019-02-20T10:35:50.543Z,8.70
2019-02-20T10:38:23.651Z,8.80
2019-02-20T10:40:54.491Z,8.80
2019-02-20T10:43:27.150Z,9.00
2019-02-20T10:46:00.318Z,8.90
2019-02-20T10:48:33.096Z,8.90
2019-02-20T10:51:06.468Z,8.90
2019-02-20T10:53:36.720Z,9.00
2019-02-20T10:56:09.339Z,9.30
2019-02-20T10:58:42.063Z,9.30
2019-02-20T11:01:12.961Z,9.40
2019-02-20T11:03:43.347Z,9.60
2019-02-20T11:06:17.664Z,9.60
2019-02-20T11:08:47.819Z,9.70
2019-02-20T11:11:20.206Z,9.50
2019-02-20T11:13:50.321Z,9.80
2019-02-20T11:16:21.264Z,10.00
2019-02-20T11:18:54.369Z,10.00
2019-02-20T11:21:24.811Z,10.10
2019-02-20T11:23:58.681Z,10.40
2019-02-20T11:26:28.913Z,10.10
2019-02-20T11:29:00.393Z,10.20
2019-02-20T11:31:30.583Z,10.40
2019-02-20T11:34:03.364Z,10.50
2019-02-20T11:36:36.748Z,10.50
2019-02-20T11:39:07.630Z,10.30
2019-02-20T11:41:37.922Z,10.10
2019-02-20T11:44:09.142Z,10.10
2019-02-20T11:46:44.669Z,10.20
2019-02-20T11:49:15.369Z,10.10
2019-02-20T11:51:47.121Z,10.20
2019-02-20T11:54:19.027Z,10.30
2019-02-20T11:56:49.317Z,10.40
2019-02-20T11:59:20.967Z,10.50
2019-02-20T12:01:53.169Z,10.60
2019-02-20T12:04:23.554Z,10.50
2019-02-20T12:06:53.800Z,10.70
2019-02-20T12:09:24.061Z,10.80
2019-02-20T12:11:54.516Z,11.00
2019-02-20T12:14:24.884Z,10.90
2019-02-20T12:16:56.021Z,10.90
2019-02-20T12:19:26.543Z,11.10
2019-02-20T12:22:00.577Z,10.90
2019-02-20T12:24:32.750Z,10.60
2019-02-20T12:27:03.346Z,10.90
2019-02-20T12:29:34.957Z,11.00
2019-02-20T12:32:05.069Z,11.30
2019-02-20T12:34:35.224Z,11.50
2019-02-20T12:37:05.910Z,11.60
2019-02-20T12:39:38.679Z,11.80
2019-02-20T12:42:08.716Z,11.70
2019-02-20T12:44:39.013Z,11.60
2019-02-20T12:47:09.258Z,11.70
2019-02-20T12:49:43.906Z,11.50
2019-02-20T12:52:18.404Z,11.40
2019-02-20T12:54:48.674Z,11.20
2019-02-20T12:57:23.930Z,11.30
2019-02-20T12:59:54.281Z,11.50
2019-02-20T13:02:24.684Z,11.70
2019-02-20T13:04:55.241Z,11.40
2019-02-20T13:07:25.528Z,11.40
2019-02-20T13:09:57.036Z,11.40
2019-02-20T13:12:27.134Z,11.20
2019-02-20T13:14:57.818Z,11.10
2019-02-20T13:17:28.156Z,11.10
2019-02-20T13:19:58.920Z,11.20
2019-02-20T13:22:29.165Z,10.90
2019-02-20T13:25:11.099Z,11.00
2019-02-20T13:27:41.825Z,11.30
2019-02-20T13:30:12.450Z,11.20
2019-02-20T13:32:42.743Z,11.50
2019-02-20T13:35:15.723Z,11.70
2019-02-20T13:37:46.049Z,11.80
2019-02-20T13:40:19.145Z,11.80
2019-02-20T13:42:49.894Z,11.60
2019-02-20T13:45:25.250Z,11.50
2019-02-20T13:47:55.582Z,11.60
2019-02-20T13:50:26.565Z,11.30
2019-02-20T13:52:56.698Z,11.20
2019-02-20T13:55:34.284Z,11.40
2019-02-20T13:58:01.345Z,11.50
2019-02-20T14:00:31.663Z,11.50
2019-02-20T14:03:05.808Z,11.70
2019-02-20T14:05:39.268Z,11.70
2019-02-20T14:08:10.930Z,11.80
2019-02-20T14:10:44.324Z,11.60
2019-02-20T14:13:14.815Z,11.30
2019-02-20T14:15:47.140Z,11.40
2019-02-20T14:18:18.785Z,11.20
2019-02-20T14:20:51.531Z,11.20
2019-02-20T14:23:27.385Z,10.90
2019-02-20T14:25:58.071Z,10.90
2019-02-20T14:28:31.906Z,11.10
2019-02-20T14:31:03.381Z,11.10
2019-02-20T14:33:33.608Z,11.00
2019-02-20T14:36:07.297Z,11.10
2019-02-20T14:38:37.533Z,11.30
2019-02-20T14:41:08.046Z,11.00
2019-02-20T14:43:38.846Z,11.00
2019-02-20T14:46:09.437Z,11.00
2019-02-20T14:48:39.727Z,11.00
2019-02-20T14:51:11.096Z,10.90
2019-02-20T14:53:44.153Z,11.10
2019-02-20T14:56:14.561Z,11.00
2019-02-20T14:58:44.760Z,10.80
2019-02-20T15:01:14.920Z,10.80
2019-02-20T15:03:45.517Z,10.90
2019-02-20T15:06:16.155Z,10.90
2019-02-20T15:08:46.733Z,10.80
2019-02-20T15:11:17.182Z,10.80
2019-02-20T15:13:47.444Z,10.80
2019-02-20T15:16:17.795Z,10.80
2019-02-20T15:18:50.096Z,10.70
2019-02-20T15:21:25.734Z,10.80
2019-02-20T15:23:56.020Z,10.70
2019-02-20T15:26:26.659Z,10.60
2019-02-20T15:28:57.322Z,10.50
2019-02-20T15:31:34.124Z,10.50
2019-02-20T15:34:05.007Z,10.40
2019-02-20T15:36:37.685Z,10.40
2019-02-20T15:39:08.972Z,10.40
2019-02-20T15:41:41.847Z,10.30
2019-02-20T15:44:15.311Z,10.40
2019-02-20T15:46:45.873Z,10.40
2019-02-20T15:49:23.888Z,10.40
2019-02-20T15:51:51.444Z,10.30
2019-02-20T15:54:21.944Z,10.30
2019-02-20T15:56:52.886Z,10.30
2019-02-20T15:59:23.438Z,10.30
2019-02-20T16:01:54.969Z,10.30
2019-02-20T16:04:25.509Z,10.20
2019-02-20T16:06:56.158Z,10.30
2019-02-20T16:09:28.228Z,10.30
2019-02-20T16:12:01.495Z,10.20
2019-02-20T16:14:35.290Z,10.20
2019-02-20T16:17:05.733Z,10.20
2019-02-20T16:19:35.765Z,10.20
2019-02-20T16:22:06.276Z,10.20
2019-02-20T16:24:37.986Z,10.20
2019-02-20T16:27:08.557Z,10.20
2019-02-20T16:29:38.794Z,10.10
2019-02-20T16:32:09.206Z,10.10
2019-02-20T16:34:39.336Z,10.10
2019-02-20T16:37:09.694Z,10.10
2019-02-20T16:39:41.526Z,10.10
2019-02-20T16:42:15.034Z,10.10
2019-02-20T16:44:47.514Z,10.10
2019-02-20T16:47:18.424Z,10.00
2019-02-20T16:49:48.613Z,10.00
2019-02-20T16:52:18.961Z,10.00
2019-02-20T16:54:49.812Z,10.00
2019-02-20T16:57:34.949Z,10.00
2019-02-20T17:00:06.087Z,10.00
2019-02-20T17:02:36.617Z,10.00
2019-02-20T17:05:13.124Z,9.90
2019-02-20T17:07:42.236Z,9.90
2019-02-20T17:10:17.807Z,9.90
2019-02-20T17:12:49.564Z,9.90
2019-02-20T17:15:22.129Z,9.80
2019-02-20T17:17:55.631Z,9.80
2019-02-20T17:20:26.742Z,9.80
2019-02-20T17:22:56.956Z,9.80
2019-02-20T17:25:28.349Z,9.80
2019-02-20T17:28:05.463Z,9.80
2019-02-20T17:30:32.187Z,9.70
2019-02-20T17:33:05.506Z,9.70
2019-02-20T17:35:38.390Z,9.70
2019-02-20T17:38:11.434Z,9.70
2019-02-20T17:40:45.263Z,9.70
2019-02-20T17:43:16.120Z,9.70
2019-02-20T17:45:46.333Z,9.70
2019-02-20T17:48:21.577Z,9.60
2019-02-20T17:50:51.981Z,9.60
2019-02-20T17:53:24.520Z,9.60
2019-02-20T17:55:57.548Z,9.60
2019-02-20T17:58:29.236Z,9.60
2019-02-20T18:01:00.913Z,9.60
2019-02-20T18:03:31.481Z,9.60
2019-02-20T18:06:01.683Z,9.60
2019-02-20T18:08:31.926Z,9.60
2019-02-20T18:11:07.602Z,9.60
2019-02-20T18:13:34.828Z,9.60
2019-02-20T18:16:05.239Z,9.60
2019-02-20T18:18:35.767Z,9.60
2019-02-20T18:21:06.225Z,9.60
2019-02-20T18:23:36.281Z,9.60
2019-02-20T18:26:07.009Z,9.60
2019-02-20T18:28:37.295Z,9.60
2019-02-20T18:31:07.924Z,9.60
2019-02-20T18:33:38.200Z,9.50
2019-02-20T18:36:08.442Z,9.50
2019-02-20T18:38:38.741Z,9.50
2019-02-20T18:41:10.976Z,9.50
2019-02-20T18:43:41.416Z,9.50
2019-02-20T18:46:14.276Z,9.50
2019-02-20T18:48:51.801Z,9.50
2019-02-20T18:51:22.093Z,9.40
2019-02-20T18:53:52.665Z,9.40
2019-02-20T18:56:24.084Z,9.50
2019-02-20T18:58:54.480Z,9.40
2019-02-20T19:01:25.317Z,9.40
2019-02-20T19:04:00.973Z,9.40
2019-02-20T19:06:31.644Z,9.40
2019-02-20T19:09:12.093Z,9.40
2019-02-20T19:12:13.315Z,9.40
2019-02-20T19:15:27.416Z,9.40
2019-02-20T19:18:33.679Z,9.30
2019-02-20T19:21:54.017Z,9.30
2019-02-20T19:25:03.853Z,9.30
2019-02-20T19:28:03.433Z,9.20
2019-02-20T19:31:16.402Z,9.20
2019-02-20T19:34:40.210Z,9.20
2019-02-20T19:38:13.310Z,9.20
2019-02-20T19:41:36.831Z,9.20
2019-02-20T19:44:44.270Z,9.20
2019-02-20T19:47:54.328Z,9.20
2019-02-20T19:50:59.348Z,9.20
2019-02-20T19:54:10.516Z,9.20
2019-02-20T19:57:29.015Z,9.20
2019-02-20T20:00:47.581Z,9.20
2019-02-20T20:03:58.524Z,9.10
2019-02-20T20:07:10.670Z,9.10
2019-02-20T20:10:00.310Z,9.10
2019-02-20T20:12:55.473Z,9.10
2019-02-20T20:15:53.150Z,9.00
2019-02-20T20:18:48.091Z,9.10
2019-02-20T20:21:42.151Z,9.00
2019-02-20T20:24:35.713Z,9.00
2019-02-20T20:27:47.175Z,9.00
2019-02-20T20:30:40.808Z,9.00
2019-02-20T20:33:57.584Z,9.00
2019-02-20T20:37:33.071Z,9.00
2019-02-20T20:41:01.149Z,8.90
2019-02-20T20:44:33.977Z,8.90
2019-02-20T20:47:33.215Z,8.80
2019-02-20T20:50:33.086Z,8.80
2019-02-20T20:54:05.259Z,8.70
2019-02-20T20:56:57.964Z,8.70
2019-02-20T20:59:54.573Z,8.70
2019-02-20T21:02:37.684Z,8.70
2019-02-20T21:05:57.457Z,8.60
2019-02-20T21:08:56.561Z,8.70
2019-02-20T21:12:11.909Z,8.50
2019-02-20T21:14:57.345Z,8.60
2019-02-20T21:18:18.226Z,8.50
2019-02-20T21:21:11.342Z,8.50
2019-02-20T21:24:37.082Z,8.50
2019-02-20T21:28:00.462Z,8.50
2019-02-20T21:31:08.810Z,8.50
2019-02-20T21:34:19.125Z,8.40
2019-02-20T21:37:24.611Z,8.40
2019-02-20T21:40:04.560Z,8.40
2019-02-20T21:43:01.084Z,8.40
2019-02-20T21:46:02.129Z,8.40
2019-02-20T21:48:56.826Z,8.40
2019-02-20T21:52:03.953Z,8.40
2019-02-20T21:55:04.035Z,8.40
2019-02-20T21:58:14.637Z,8.40
2019-02-20T22:01:26.322Z,8.30
2019-02-20T22:04:41.572Z,8.20
2019-02-20T22:07:30.606Z,8.20
2019-02-20T22:11:16.145Z,8.20
2019-02-20T22:14:40.745Z,8.20
2019-02-20T22:17:48.529Z,8.20
2019-02-20T22:20:39.733Z,8.20
2019-02-20T22:23:40.556Z,8.10
2019-02-20T22:26:31.912Z,8.10
2019-02-20T22:29:53.128Z,8.10
2019-02-20T22:33:04.228Z,8.10
2019-02-20T22:36:32.994Z,8.10
2019-02-20T22:39:30.406Z,8.00
2019-02-20T22:42:31.744Z,8.00
2019-02-20T22:45:33.374Z,8.00
2019-02-20T22:48:33.284Z,8.00
2019-02-20T22:51:25.327Z,8.00
2019-02-20T22:54:32.723Z,7.90
2019-02-20T22:57:47.098Z,7.90
2019-02-20T23:00:53.989Z,7.80
2019-02-20T23:03:37.942Z,7.80
2019-02-20T23:06:40.207Z,7.80
2019-02-20T23:09:52.893Z,7.80
2019-02-20T23:12:47.597Z,7.80
2019-02-20T23:15:17.710Z,7.80
2019-02-20T23:17:48.502Z,7.80
2019-02-20T23:20:18.935Z,7.90
2019-02-20T23:22:51.782Z,7.90
2019-02-20T23:25:22.089Z,7.90
2019-02-20T23:27:54.413Z,7.90
2019-02-20T23:30:24.911Z,7.90
2019-02-20T23:32:55.195Z,7.90
2019-02-20T23:35:25.541Z,7.90
2019-02-20T23:37:58.751Z,7.90
2019-02-20T23:40:29.845Z,7.90
2019-02-20T23:43:00.068Z,7.90
2019-02-20T23:45:31.538Z,7.90
2019-02-20T23:48:01.778Z,7.90
2019-02-20T23:50:33.113Z,7.90
2019-02-20T23:53:03.633Z,7.90
2019-02-20T23:55:34.702Z,7.90
2019-02-20T23:58:05.272Z,7.90
